createdAt,value
2019-02-27T00:01:54.709Z,6.19
2019-02-27T00:07:02.331Z,6.55
2019-02-27T00:12:10.047Z,6.80
2019-02-27T00:17:18.058Z,7.07
2019-02-27T00:22:24.841Z,6.96
2019-02-27T00:27:32.429Z,7.19
2019-02-27T00:32:40.142Z,7.22
2019-02-27T00:37:51.774Z,6.72
2019-02-27T00:42:55.029Z,7.14
2019-02-27T00:48:02.591Z,7.69
2019-02-27T00:53:10.252Z,7.91
2019-02-27T00:58:17.871Z,7.38
2019-02-27T01:03:26.165Z,7.72
2019-02-27T01:08:32.719Z,7.02
2019-02-27T01:13:40.337Z,7.30
2019-02-27T01:18:47.918Z,6.93
2019-02-27T01:23:55.581Z,6.74
2019-02-27T01:29:03.199Z,6.50
2019-02-27T01:34:11.440Z,6.39
2019-02-27T01:39:17.974Z,6.98
2019-02-27T01:44:25.665Z,7.19
2019-02-27T01:49:33.294Z,6.74
2019-02-27T01:54:40.943Z,7.48
2019-02-27T01:59:50.418Z,7.37
2019-02-27T02:04:55.765Z,7.30
2019-02-27T02:10:03.359Z,7.09
2019-02-27T02:15:11.022Z,7.73
2019-02-27T02:20:18.677Z,7.67
2019-02-27T02:25:27.946Z,7.70
2019-02-27T02:30:33.412Z,7.69
2019-02-27T02:35:41.218Z,7.70
2019-02-27T02:40:48.811Z,8.09
2019-02-27T02:45:56.481Z,7.63
2019-02-27T02:51:04.114Z,7.67
2019-02-27T02:56:11.780Z,7.80
2019-02-27T03:01:19.351Z,7.73
2019-02-27T03:06:27.011Z,8.06
2019-02-27T03:11:34.634Z,7.91
2019-02-27T03:16:42.434Z,7.62
2019-02-27T03:21:49.978Z,7.85
2019-02-27T03:26:57.605Z,7.39
2019-02-27T03:32:05.216Z,7.95
2019-02-27T03:37:13.410Z,8.30
2019-02-27T03:42:20.075Z,8.04
2019-02-27T03:47:27.709Z,8.43
2019-02-27T03:52:36.540Z,8.07
2019-02-27T03:57:42.509Z,7.54
2019-02-27T04:02:50.099Z,7.68
2019-02-27T04:07:57.788Z,8.25
2019-02-27T04:13:05.386Z,8.54
2019-02-27T04:18:13.058Z,8.32
2019-02-27T04:23:20.677Z,8.35
2019-02-27T04:28:29.993Z,7.77
2019-02-27T04:33:35.500Z,7.58
2019-02-27T04:38:43.137Z,7.51
2019-02-27T04:43:50.746Z,7.51
2019-02-27T04:48:58.403Z,7.15
2019-02-27T04:54:06.629Z,6.92
2019-02-27T04:59:15.770Z,6.98
2019-02-27T05:04:20.326Z,6.35
2019-02-27T05:09:27.969Z,5.87
2019-02-27T05:14:35.557Z,5.79
2019-02-27T05:19:43.170Z,5.66
2019-02-27T05:24:50.803Z,5.71
2019-02-27T05:30:00.012Z,6.02
2019-02-27T05:35:05.678Z,6.14
2019-02-27T05:40:13.341Z,6.33
2019-02-27T05:45:20.949Z,6.47
2019-02-27T05:50:28.589Z,7.59
2019-02-27T05:55:38.992Z,7.95
2019-02-27T06:00:43.513Z,7.45
2019-02-27T06:05:51.129Z,7.80
2019-02-27T06:10:58.797Z,7.61
2019-02-27T06:16:08.858Z,8.22
2019-02-27T06:21:15.914Z,8.07
2019-02-27T06:26:20.813Z,8.22
2019-02-27T06:31:28.495Z,7.63
2019-02-27T06:36:36.119Z,8.11
2019-02-27T06:41:43.765Z,9.23
2019-02-27T06:46:53.907Z,8.13
2019-02-27T06:51:58.527Z,8.04
2019-02-27T06:57:07.787Z,8.27
2019-02-27T07:02:13.330Z,8.21
2019-02-27T07:07:20.939Z,7.96
2019-02-27T07:12:28.610Z,8.06
2019-02-27T07:17:36.215Z,7.41
2019-02-27T07:22:45.930Z,7.07
2019-02-27T07:27:50.953Z,7.36
2019-02-27T07:32:58.575Z,7.29
2019-02-27T07:38:06.156Z,7.45
2019-02-27T07:43:13.842Z,7.27
2019-02-27T07:48:21.430Z,7.41
2019-02-27T07:53:29.142Z,7.21
2019-02-27T07:58:36.778Z,6.84
2019-02-27T08:03:45.533Z,6.88
2019-02-27T08:08:51.634Z,7.16
2019-02-27T08:14:00.750Z,6.73
2019-02-27T08:19:08.983Z,6.29
2019-02-27T08:24:14.367Z,7.35
2019-02-27T08:29:20.807Z,6.89
2019-02-27T08:34:28.481Z,6.98
2019-02-27T08:39:36.072Z,6.67
2019-02-27T08:44:45.754Z,6.88
2019-02-27T08:49:50.959Z,7.27
2019-02-27T08:54:58.675Z,7.18
2019-02-27T09:00:06.305Z,7.30
2019-02-27T09:05:13.985Z,7.02
2019-02-27T09:10:23.323Z,6.91
2019-02-27T09:15:28.773Z,7.13
2019-02-27T09:20:36.405Z,7.51
2019-02-27T09:25:44.046Z,7.37
2019-02-27T09:30:51.659Z,7.57
2019-02-27T09:35:59.330Z,6.90
2019-02-27T09:41:06.953Z,6.48
2019-02-27T09:46:19.239Z,6.79
2019-02-27T09:51:24.009Z,6.67
2019-02-27T09:56:32.795Z,7.00
2019-02-27T10:01:38.738Z,6.87
2019-02-27T10:06:46.390Z,6.77
2019-02-27T10:11:53.997Z,6.02
2019-02-27T10:17:01.699Z,6.21
2019-02-27T10:22:09.300Z,5.76
2019-02-27T10:27:17.011Z,6.04
2019-02-27T10:32:24.630Z,6.19
2019-02-27T10:37:32.422Z,6.41
2019-02-27T10:42:39.981Z,5.90
2019-02-27T10:47:47.694Z,6.15
2019-02-27T10:52:55.290Z,6.48
2019-02-27T10:58:02.965Z,6.14
2019-02-27T11:03:10.569Z,5.93
2019-02-27T11:08:18.190Z,6.78
2019-02-27T11:13:25.823Z,6.73
2019-02-27T11:18:33.502Z,5.87
2019-02-27T11:23:41.720Z,6.33
2019-02-27T11:28:48.361Z,5.72
2019-02-27T11:33:55.959Z,5.36
2019-02-27T11:39:04.799Z,5.52
2019-02-27T11:44:13.952Z,5.49
2019-02-27T11:49:17.966Z,5.80
2019-02-27T11:54:25.633Z,5.56
2019-02-27T11:59:33.266Z,5.33
2019-02-27T12:04:40.878Z,5.46
2019-02-27T12:09:48.548Z,5.77
2019-02-27T12:14:56.182Z,6.05
2019-02-27T12:20:03.869Z,6.09
2019-02-27T12:25:11.498Z,6.66
2019-02-27T12:30:19.178Z,6.64
2019-02-27T12:35:26.783Z,6.24
2019-02-27T12:40:34.510Z,6.95
2019-02-27T12:45:42.129Z,6.06
2019-02-27T12:50:49.818Z,5.58
2019-02-27T12:55:57.448Z,5.37
2019-02-27T13:01:05.078Z,5.66
2019-02-27T13:06:12.715Z,5.39
2019-02-27T13:11:20.422Z,6.14
2019-02-27T13:16:28.063Z,6.30
2019-02-27T13:21:35.776Z,6.67
2019-02-27T13:26:43.393Z,6.61
2019-02-27T13:31:51.510Z,6.74
2019-02-27T13:36:58.219Z,6.18
2019-02-27T13:42:05.842Z,6.84
2019-02-27T13:47:13.438Z,6.45
2019-02-27T13:52:21.126Z,6.42
2019-02-27T13:57:28.727Z,6.00
2019-02-27T14:02:39.587Z,5.43
2019-02-27T14:07:46.320Z,6.03
2019-02-27T14:12:53.981Z,6.33
2019-02-27T14:18:01.559Z,6.65
2019-02-27T14:23:09.215Z,6.40
2019-02-27T14:28:18.337Z,5.71
2019-02-27T14:33:24.013Z,6.04
2019-02-27T14:38:31.602Z,5.69
2019-02-27T14:43:39.263Z,4.92
2019-02-27T14:48:46.865Z,4.39
2019-02-27T14:53:55.755Z,4.49
2019-02-27T14:59:01.672Z,5.35
2019-02-27T15:04:09.370Z,5.74
2019-02-27T15:09:16.990Z,4.91
2019-02-27T15:14:24.603Z,5.43
2019-02-27T15:19:32.182Z,5.10
2019-02-27T15:24:39.847Z,5.70
2019-02-27T15:29:47.449Z,5.27
2019-02-27T15:34:55.077Z,5.22
2019-02-27T15:40:02.699Z,4.97
2019-02-27T15:45:10.463Z,4.89
2019-02-27T15:50:22.407Z,5.22
2019-02-27T15:55:25.242Z,5.21
2019-02-27T16:00:32.866Z,5.36
2019-02-27T16:05:40.534Z,4.96
2019-02-27T16:10:54.748Z,5.08
2019-02-27T16:15:55.403Z,4.97
2019-02-27T16:21:03.013Z,4.96
2019-02-27T16:26:11.210Z,5.31
2019-02-27T16:31:17.817Z,5.87
2019-02-27T16:36:25.542Z,5.40
2019-02-27T16:41:33.177Z,6.21
2019-02-27T16:46:44.552Z,5.91
2019-02-27T16:51:47.967Z,6.13
2019-02-27T16:56:55.645Z,5.89
2019-02-27T17:02:03.907Z,6.34
2019-02-27T17:07:10.507Z,6.51
2019-02-27T17:12:18.119Z,6.72
2019-02-27T17:17:25.822Z,6.60
2019-02-27T17:22:33.888Z,6.26
2019-02-27T17:27:40.626Z,5.98
2019-02-27T17:32:48.230Z,6.20
2019-02-27T17:37:55.849Z,6.45
2019-02-27T17:43:03.471Z,6.77
2019-02-27T17:48:12.296Z,6.77
2019-02-27T17:53:20.444Z,7.10
2019-02-27T17:58:25.412Z,7.37
2019-02-27T18:03:33.012Z,7.24
2019-02-27T18:08:40.717Z,6.73
2019-02-27T18:13:48.314Z,6.57
2019-02-27T18:18:55.994Z,6.80
2019-02-27T18:24:03.605Z,7.20
2019-02-27T18:29:11.311Z,8.13
2019-02-27T18:34:21.574Z,7.84
2019-02-27T18:39:26.080Z,6.72
2019-02-27T18:44:33.701Z,6.94
2019-02-27T18:49:42.425Z,7.33
2019-02-27T18:54:48.654Z,7.10
2019-02-27T18:59:57.543Z,7.56
2019-02-27T19:05:03.402Z,7.24
2019-02-27T19:10:11.119Z,7.24
2019-02-27T19:15:18.773Z,7.42
2019-02-27T19:20:26.510Z,7.46
2019-02-27T19:25:35.403Z,7.36
2019-02-27T19:30:41.673Z,7.83
2019-02-27T19:35:48.447Z,7.40
2019-02-27T19:40:56.071Z,8.46
2019-02-27T19:46:03.679Z,8.47
2019-02-27T19:51:11.339Z,8.72
2019-02-27T19:56:18.936Z,9.09
2019-02-27T20:01:26.610Z,9.08
2019-02-27T20:06:34.263Z,8.78
2019-02-27T20:11:41.909Z,8.73
2019-02-27T20:16:49.723Z,8.72
2019-02-27T20:22:00.019Z,8.49
2019-02-27T20:26:57.584Z,9.43
2019-02-27T20:32:05.406Z,8.77
2019-02-27T20:37:13.069Z,8.43
2019-02-27T20:42:20.867Z,8.64
2019-02-27T20:47:28.721Z,8.56
2019-02-27T20:52:36.438Z,9.02
2019-02-27T20:57:44.076Z,8.99
2019-02-27T21:02:53.516Z,9.12
2019-02-27T21:08:01.981Z,9.02
2019-02-27T21:13:06.399Z,9.62
2019-02-27T21:18:14.011Z,9.91
2019-02-27T21:23:21.699Z,10.01
2019-02-27T21:28:29.307Z,10.14
2019-02-27T21:33:37.021Z,10.44
2019-02-27T21:38:47.494Z,10.40
2019-02-27T21:43:51.818Z,10.81
2019-02-27T21:48:59.436Z,12.50
2019-02-27T21:54:07.191Z,12.85
2019-02-27T21:59:14.838Z,12.85
2019-02-27T22:04:22.415Z,12.52
2019-02-27T22:09:29.999Z,12.88
2019-02-27T22:14:37.708Z,13.27
2019-02-27T22:19:45.332Z,14.16
2019-02-27T22:24:55.492Z,14.55
2019-02-27T22:30:00.842Z,15.64
2019-02-27T22:35:07.368Z,16.98
2019-02-27T22:40:14.983Z,17.49
2019-02-27T22:45:22.633Z,20.73
2019-02-27T22:50:30.357Z,19.93
2019-02-27T22:55:38.199Z,22.28
2019-02-27T23:00:45.861Z,20.34
2019-02-27T23:05:53.462Z,19.96
2019-02-27T23:11:02.905Z,20.03
2019-02-27T23:16:08.290Z,19.23
2019-02-27T23:21:16.058Z,21.65
2019-02-27T23:26:23.737Z,20.49
2019-02-27T23:31:31.343Z,20.84
2019-02-27T23:36:39.056Z,20.77
2019-02-27T23:41:46.687Z,22.54
2019-02-27T23:46:57.124Z,21.52
2019-02-27T23:52:01.426Z,20.85
2019-02-27T23:57:09.080Z,21.62
